Moylan, Pennsylvania
Current Conditions -  °F | °C
As of 10:54 AM on Monday 24 Nov 2014 (Local Time) from KPHL Reporting Station
Broken Clouds Broken Clouds  
Wind Chill: 70°   Ceiling: 2400
Heat Index: 70°   Visibility: 10mi
Dew Point: 60°   Wind: 21mph
Humidity: 71%   Direction: 220°SW
Pressure: 29.67"   Gusts: 30mph
Location:  39.9176°N, 75.3905°W
Report Text: KPHL 241554Z 22018G26KT 10SM BKN024 BKN030 21/16 A2967 RMK AO2 PK WND 23028/1521 SLP047 T02110156
Loading
Personal Weather Stations






























Interactive Weather Map New forecast layout! Learn more

10-Day Weather Forecast

Advertisements
Track Severe Weather on mobile